sensor_id;sensor_type;location;lat;lon;timestamp;temperature;humidity
16076;DHT22;8142;48.242;11.644;2023-01-05T00:01:04;9.70;99.90
16076;DHT22;8142;48.242;11.644;2023-01-05T00:03:30;9.70;99.90
16076;DHT22;8142;48.242;11.644;2023-01-05T00:06:00;9.70;99.90
16076;DHT22;8142;48.242;11.644;2023-01-05T00:08:27;9.70;99.90
16076;DHT22;8142;48.242;11.644;2023-01-05T00:10:53;9.70;99.90
16076;DHT22;8142;48.242;11.644;2023-01-05T00:13:38;9.70;99.90
16076;DHT22;8142;48.242;11.644;2023-01-05T00:16:23;9.80;99.90
16076;DHT22;8142;48.242;11.644;2023-01-05T00:19:10;9.80;99.90
16076;DHT22;8142;48.242;11.644;2023-01-05T00:21:55;9.80;99.90
16076;DHT22;8142;48.242;11.644;2023-01-05T00:24:40;9.80;99.90
16076;DHT22;8142;48.242;11.644;2023-01-05T00:27:06;9.80;99.90
16076;DHT22;8142;48.242;11.644;2023-01-05T00:29:33;9.80;99.90
16076;DHT22;8142;48.242;11.644;2023-01-05T00:31:59;9.80;99.90
16076;DHT22;8142;48.242;11.644;2023-01-05T00:34:28;9.80;99.90
16076;DHT22;8142;48.242;11.644;2023-01-05T00:36:54;9.80;99.90
16076;DHT22;8142;48.242;11.644;2023-01-05T00:39:20;9.80;99.90
16076;DHT22;8142;48.242;11.644;2023-01-05T00:41:47;9.80;99.90
16076;DHT22;8142;48.242;11.644;2023-01-05T00:44:13;9.80;99.90
16076;DHT22;8142;48.242;11.644;2023-01-05T00:46:39;9.80;99.90
16076;DHT22;8142;48.242;11.644;2023-01-05T00:49:05;9.80;99.90
16076;DHT22;8142;48.242;11.644;2023-01-05T00:51:32;9.80;99.90
16076;DHT22;8142;48.242;11.644;2023-01-05T00:53:58;9.80;99.90
16076;DHT22;8142;48.242;11.644;2023-01-05T00:56:24;9.80;99.90
16076;DHT22;8142;48.242;11.644;2023-01-05T00:58:52;9.80;99.90
16076;DHT22;8142;48.242;11.644;2023-01-05T01:01:20;9.80;99.90
16076;DHT22;8142;48.242;11.644;2023-01-05T01:03:46;9.80;99.90
16076;DHT22;8142;48.242;11.644;2023-01-05T01:06:12;9.80;99.90
16076;DHT22;8142;48.242;11.644;2023-01-05T01:08:39;9.90;99.90
16076;DHT22;8142;48.242;11.644;2023-01-05T01:11:06;9.90;99.90
16076;DHT22;8142;48.242;11.644;2023-01-05T01:13:32;9.90;99.90
16076;DHT22;8142;48.242;11.644;2023-01-05T01:16:10;9.90;99.90
16076;DHT22;8142;48.242;11.644;2023-01-05T01:18:37;9.90;99.90
16076;DHT22;8142;48.242;11.644;2023-01-05T01:21:03;9.90;99.90
16076;DHT22;8142;48.242;11.644;2023-01-05T01:23:30;10.00;99.90
16076;DHT22;8142;48.242;11.644;2023-01-05T01:26:03;9.90;99.90
16076;DHT22;8142;48.242;11.644;2023-01-05T01:28:30;10.00;99.90
16076;DHT22;8142;48.242;11.644;2023-01-05T01:30:56;10.00;99.90
16076;DHT22;8142;48.242;11.644;2023-01-05T01:33:22;10.00;99.90
16076;DHT22;8142;48.242;11.644;2023-01-05T01:35:48;10.00;99.90
16076;DHT22;8142;48.242;11.644;2023-01-05T01:38:17;10.10;99.90
16076;DHT22;8142;48.242;11.644;2023-01-05T01:40:45;10.00;99.90
16076;DHT22;8142;48.242;11.644;2023-01-05T01:43:19;10.00;99.90
16076;DHT22;8142;48.242;11.644;2023-01-05T01:45:45;10.00;99.90
16076;DHT22;8142;48.242;11.644;2023-01-05T01:48:15;10.00;99.90
16076;DHT22;8142;48.242;11.644;2023-01-05T01:50:49;10.00;99.90
16076;DHT22;8142;48.242;11.644;2023-01-05T01:53:25;10.00;99.90
16076;DHT22;8142;48.242;11.644;2023-01-05T01:55:54;10.00;99.90
16076;DHT22;8142;48.242;11.644;2023-01-05T01:58:25;10.00;99.90
16076;DHT22;8142;48.242;11.644;2023-01-05T02:00:53;10.00;99.90
16076;DHT22;8142;48.242;11.644;2023-01-05T02:03:20;10.00;99.90
16076;DHT22;8142;48.242;11.644;2023-01-05T02:05:46;9.90;99.90
16076;DHT22;8142;48.242;11.644;2023-01-05T02:08:14;10.00;99.90
16076;DHT22;8142;48.242;11.644;2023-01-05T02:10:54;9.90;99.90
16076;DHT22;8142;48.242;11.644;2023-01-05T02:30:56;9.80;99.90
16076;DHT22;8142;48.242;11.644;2023-01-05T02:36:23;9.80;99.90
16076;DHT22;8142;48.242;11.644;2023-01-05T02:44:08;9.90;99.90
16076;DHT22;8142;48.242;11.644;2023-01-05T02:46:35;9.90;99.90
16076;DHT22;8142;48.242;11.644;2023-01-05T02:49:03;9.80;99.90
16076;DHT22;8142;48.242;11.644;2023-01-05T02:51:37;9.90;99.90
16076;DHT22;8142;48.242;11.644;2023-01-05T02:54:50;9.80;99.90
16076;DHT22;8142;48.242;11.644;2023-01-05T02:57:30;9.80;99.90
16076;DHT22;8142;48.242;11.644;2023-01-05T03:03:01;9.70;99.90
16076;DHT22;8142;48.242;11.644;2023-01-05T03:05:33;9.60;99.90
16076;DHT22;8142;48.242;11.644;2023-01-05T03:08:00;9.60;99.90
16076;DHT22;8142;48.242;11.644;2023-01-05T03:11:01;9.50;99.90
16076;DHT22;8142;48.242;11.644;2023-01-05T03:13:51;9.50;99.90
16076;DHT22;8142;48.242;11.644;2023-01-05T03:16:33;9.40;99.90
16076;DHT22;8142;48.242;11.644;2023-01-05T03:19:03;9.40;99.90
16076;DHT22;8142;48.242;11.644;2023-01-05T03:21:49;9.40;99.90
16076;DHT22;8142;48.242;11.644;2023-01-05T03:24:36;9.40;99.90
16076;DHT22;8142;48.242;11.644;2023-01-05T03:27:22;9.40;99.90
16076;DHT22;8142;48.242;11.644;2023-01-05T03:30:08;9.40;99.90
16076;DHT22;8142;48.242;11.644;2023-01-05T03:32:59;9.40;99.90
16076;DHT22;8142;48.242;11.644;2023-01-05T03:35:51;9.40;99.90
16076;DHT22;8142;48.242;11.644;2023-01-05T03:38:29;9.40;99.90
16076;DHT22;8142;48.242;11.644;2023-01-05T03:40:58;9.30;99.90
16076;DHT22;8142;48.242;11.644;2023-01-05T03:43:25;9.50;99.90
16076;DHT22;8142;48.242;11.644;2023-01-05T03:45:55;9.50;99.90
16076;DHT22;8142;48.242;11.644;2023-01-05T03:48:23;9.50;99.90
16076;DHT22;8142;48.242;11.644;2023-01-05T03:50:50;9.50;99.90
16076;DHT22;8142;48.242;11.644;2023-01-05T03:53:17;9.50;99.90
16076;DHT22;8142;48.242;11.644;2023-01-05T03:55:43;9.50;99.90
16076;DHT22;8142;48.242;11.644;2023-01-05T03:58:09;9.50;99.90
16076;DHT22;8142;48.242;11.644;2023-01-05T04:00:35;9.60;99.90
16076;DHT22;8142;48.242;11.644;2023-01-05T04:03:01;9.60;99.90
16076;DHT22;8142;48.242;11.644;2023-01-05T04:05:27;9.60;99.90
16076;DHT22;8142;48.242;11.644;2023-01-05T04:07:53;9.60;99.90
16076;DHT22;8142;48.242;11.644;2023-01-05T04:10:20;9.60;99.90
16076;DHT22;8142;48.242;11.644;2023-01-05T04:12:46;9.70;99.90
16076;DHT22;8142;48.242;11.644;2023-01-05T04:15:14;9.70;99.90
16076;DHT22;8142;48.242;11.644;2023-01-05T04:17:40;9.70;99.90
16076;DHT22;8142;48.242;11.644;2023-01-05T04:20:06;9.70;99.90
16076;DHT22;8142;48.242;11.644;2023-01-05T04:22:33;9.80;99.90
16076;DHT22;8142;48.242;11.644;2023-01-05T04:24:59;9.80;99.90
16076;DHT22;8142;48.242;11.644;2023-01-05T04:27:28;9.80;99.90
16076;DHT22;8142;48.242;11.644;2023-01-05T04:29:54;9.80;99.90
16076;DHT22;8142;48.242;11.644;2023-01-05T04:32:20;9.90;99.90
16076;DHT22;8142;48.242;11.644;2023-01-05T04:34:46;9.90;99.90
16076;DHT22;8142;48.242;11.644;2023-01-05T04:37:13;9.90;99.90
16076;DHT22;8142;48.242;11.644;2023-01-05T04:39:39;9.90;99.90
16076;DHT22;8142;48.242;11.644;2023-01-05T04:42:05;9.90;99.90
16076;DHT22;8142;48.242;11.644;2023-01-05T04:44:31;9.90;99.90
16076;DHT22;8142;48.242;11.644;2023-01-05T04:47:06;10.00;99.90
16076;DHT22;8142;48.242;11.644;2023-01-05T04:49:33;9.90;99.90
16076;DHT22;8142;48.242;11.644;2023-01-05T04:51:59;9.90;99.90
16076;DHT22;8142;48.242;11.644;2023-01-05T04:54:25;9.90;99.90
16076;DHT22;8142;48.242;11.644;2023-01-05T04:56:51;10.00;99.90
16076;DHT22;8142;48.242;11.644;2023-01-05T04:59:18;10.00;99.90
16076;DHT22;8142;48.242;11.644;2023-01-05T05:01:44;10.00;99.90
16076;DHT22;8142;48.242;11.644;2023-01-05T05:04:10;10.00;99.90
16076;DHT22;8142;48.242;11.644;2023-01-05T05:06:36;10.00;99.90
16076;DHT22;8142;48.242;11.644;2023-01-05T05:09:02;10.00;99.90
16076;DHT22;8142;48.242;11.644;2023-01-05T05:11:28;10.10;99.90
16076;DHT22;8142;48.242;11.644;2023-01-05T05:13:54;10.10;99.90
16076;DHT22;8142;48.242;11.644;2023-01-05T05:16:20;10.10;99.90
16076;DHT22;8142;48.242;11.644;2023-01-05T05:18:47;10.10;99.90
16076;DHT22;8142;48.242;11.644;2023-01-05T05:21:13;10.10;99.90
16076;DHT22;8142;48.242;11.644;2023-01-05T05:23:39;10.10;99.90
16076;DHT22;8142;48.242;11.644;2023-01-05T05:26:05;10.20;99.90
16076;DHT22;8142;48.242;11.644;2023-01-05T05:28:32;10.10;99.90
16076;DHT22;8142;48.242;11.644;2023-01-05T05:30:58;10.20;99.90
16076;DHT22;8142;48.242;11.644;2023-01-05T05:33:24;10.20;99.90
16076;DHT22;8142;48.242;11.644;2023-01-05T05:35:51;10.10;99.90
16076;DHT22;8142;48.242;11.644;2023-01-05T05:38:17;10.10;99.90
16076;DHT22;8142;48.242;11.644;2023-01-05T05:40:43;10.00;99.90
16076;DHT22;8142;48.242;11.644;2023-01-05T05:43:09;10.00;99.90
16076;DHT22;8142;48.242;11.644;2023-01-05T05:45:35;9.90;99.90
16076;DHT22;8142;48.242;11.644;2023-01-05T05:48:01;9.80;99.90
16076;DHT22;8142;48.242;11.644;2023-01-05T05:50:27;9.80;99.90
16076;DHT22;8142;48.242;11.644;2023-01-05T05:52:54;9.80;99.90
16076;DHT22;8142;48.242;11.644;2023-01-05T05:55:23;9.80;99.90
16076;DHT22;8142;48.242;11.644;2023-01-05T05:57:52;9.80;99.90
16076;DHT22;8142;48.242;11.644;2023-01-05T06:00:19;9.80;99.90
16076;DHT22;8142;48.242;11.644;2023-01-05T06:02:45;9.80;99.90
16076;DHT22;8142;48.242;11.644;2023-01-05T06:05:11;9.90;99.90
16076;DHT22;8142;48.242;11.644;2023-01-05T06:07:38;9.90;99.90
16076;DHT22;8142;48.242;11.644;2023-01-05T06:10:08;9.90;99.90
16076;DHT22;8142;48.242;11.644;2023-01-05T06:12:34;10.00;99.90
16076;DHT22;8142;48.242;11.644;2023-01-05T06:15:00;10.00;99.90
16076;DHT22;8142;48.242;11.644;2023-01-05T06:17:26;10.00;99.90
16076;DHT22;8142;48.242;11.644;2023-01-05T06:19:53;10.10;99.90
16076;DHT22;8142;48.242;11.644;2023-01-05T06:22:19;10.10;99.90
16076;DHT22;8142;48.242;11.644;2023-01-05T06:24:45;10.10;99.90
16076;DHT22;8142;48.242;11.644;2023-01-05T06:27:11;10.10;99.90
16076;DHT22;8142;48.242;11.644;2023-01-05T06:29:37;10.10;99.90
16076;DHT22;8142;48.242;11.644;2023-01-05T06:32:04;10.10;99.90
16076;DHT22;8142;48.242;11.644;2023-01-05T06:34:30;10.20;99.90
16076;DHT22;8142;48.242;11.644;2023-01-05T06:36:57;10.10;99.90
16076;DHT22;8142;48.242;11.644;2023-01-05T06:39:23;10.20;99.90
16076;DHT22;8142;48.242;11.644;2023-01-05T06:41:49;10.20;99.90
16076;DHT22;8142;48.242;11.644;2023-01-05T06:44:15;10.20;99.90
16076;DHT22;8142;48.242;11.644;2023-01-05T06:46:42;10.20;99.90
16076;DHT22;8142;48.242;11.644;2023-01-05T06:49:10;10.20;99.90
16076;DHT22;8142;48.242;11.644;2023-01-05T06:51:37;10.20;99.90
16076;DHT22;8142;48.242;11.644;2023-01-05T06:54:05;10.20;99.90
16076;DHT22;8142;48.242;11.644;2023-01-05T06:56:32;10.20;99.90
16076;DHT22;8142;48.242;11.644;2023-01-05T06:58:58;10.20;99.90
16076;DHT22;8142;48.242;11.644;2023-01-05T07:01:24;10.20;99.90
16076;DHT22;8142;48.242;11.644;2023-01-05T07:03:50;10.20;99.90
16076;DHT22;8142;48.242;11.644;2023-01-05T07:06:17;10.20;99.90
16076;DHT22;8142;48.242;11.644;2023-01-05T07:08:43;10.20;99.90
16076;DHT22;8142;48.242;11.644;2023-01-05T07:11:09;10.20;99.90
16076;DHT22;8142;48.242;11.644;2023-01-05T07:13:35;10.20;99.90
16076;DHT22;8142;48.242;11.644;2023-01-05T07:16:01;10.20;99.90
16076;DHT22;8142;48.242;11.644;2023-01-05T07:18:28;10.20;99.90
16076;DHT22;8142;48.242;11.644;2023-01-05T07:20:54;10.20;99.90
16076;DHT22;8142;48.242;11.644;2023-01-05T07:23:21;10.20;99.90
16076;DHT22;8142;48.242;11.644;2023-01-05T07:25:47;10.20;99.90
16076;DHT22;8142;48.242;11.644;2023-01-05T07:28:13;10.20;99.90
16076;DHT22;8142;48.242;11.644;2023-01-05T07:30:39;10.20;99.90
16076;DHT22;8142;48.242;11.644;2023-01-05T07:33:13;10.20;99.90
16076;DHT22;8142;48.242;11.644;2023-01-05T07:35:40;10.20;99.90
16076;DHT22;8142;48.242;11.644;2023-01-05T07:38:06;10.20;99.90
16076;DHT22;8142;48.242;11.644;2023-01-05T07:40:32;10.20;99.90
16076;DHT22;8142;48.242;11.644;2023-01-05T07:42:59;10.20;99.90
16076;DHT22;8142;48.242;11.644;2023-01-05T07:45:25;10.20;99.90
16076;DHT22;8142;48.242;11.644;2023-01-05T07:47:52;10.20;99.90
16076;DHT22;8142;48.242;11.644;2023-01-05T07:50:18;10.20;99.90
16076;DHT22;8142;48.242;11.644;2023-01-05T07:52:44;10.20;99.90
16076;DHT22;8142;48.242;11.644;2023-01-05T07:55:12;10.20;99.90
16076;DHT22;8142;48.242;11.644;2023-01-05T07:57:39;10.20;99.90
16076;DHT22;8142;48.242;11.644;2023-01-05T08:00:09;10.20;99.90
16076;DHT22;8142;48.242;11.644;2023-01-05T08:02:37;10.20;99.90
16076;DHT22;8142;48.242;11.644;2023-01-05T08:05:06;10.20;99.90
16076;DHT22;8142;48.242;11.644;2023-01-05T08:07:34;10.20;99.90
16076;DHT22;8142;48.242;11.644;2023-01-05T08:10:01;10.20;99.90
16076;DHT22;8142;48.242;11.644;2023-01-05T08:12:46;10.20;99.90
16076;DHT22;8142;48.242;11.644;2023-01-05T08:15:38;10.20;99.90
16076;DHT22;8142;48.242;11.644;2023-01-05T08:18:04;10.20;99.90
16076;DHT22;8142;48.242;11.644;2023-01-05T08:20:30;10.20;99.90
16076;DHT22;8142;48.242;11.644;2023-01-05T08:22:56;10.20;99.90
16076;DHT22;8142;48.242;11.644;2023-01-05T08:25:22;10.20;99.90
16076;DHT22;8142;48.242;11.644;2023-01-05T08:27:48;10.30;99.90
16076;DHT22;8142;48.242;11.644;2023-01-05T08:30:14;10.20;99.90
16076;DHT22;8142;48.242;11.644;2023-01-05T08:32:41;10.30;99.90
16076;DHT22;8142;48.242;11.644;2023-01-05T08:35:13;10.30;99.90
16076;DHT22;8142;48.242;11.644;2023-01-05T08:37:39;10.40;99.90
16076;DHT22;8142;48.242;11.644;2023-01-05T08:40:05;10.40;99.90
16076;DHT22;8142;48.242;11.644;2023-01-05T08:42:34;10.30;99.90
16076;DHT22;8142;48.242;11.644;2023-01-05T08:45:00;10.40;99.90
16076;DHT22;8142;48.242;11.644;2023-01-05T08:47:26;10.40;99.90
16076;DHT22;8142;48.242;11.644;2023-01-05T08:49:52;10.40;99.90
16076;DHT22;8142;48.242;11.644;2023-01-05T08:52:18;10.40;99.90
16076;DHT22;8142;48.242;11.644;2023-01-05T08:54:44;10.40;99.90
16076;DHT22;8142;48.242;11.644;2023-01-05T08:57:11;10.40;99.90
16076;DHT22;8142;48.242;11.644;2023-01-05T08:59:37;10.40;99.90
16076;DHT22;8142;48.242;11.644;2023-01-05T09:02:03;10.40;99.90
16076;DHT22;8142;48.242;11.644;2023-01-05T09:04:29;10.40;99.90
16076;DHT22;8142;48.242;11.644;2023-01-05T09:06:55;10.30;99.90
16076;DHT22;8142;48.242;11.644;2023-01-05T09:09:21;10.30;99.90
16076;DHT22;8142;48.242;11.644;2023-01-05T09:11:49;10.30;99.90
16076;DHT22;8142;48.242;11.644;2023-01-05T09:14:16;10.20;99.90
16076;DHT22;8142;48.242;11.644;2023-01-05T09:16:44;10.20;99.90
16076;DHT22;8142;48.242;11.644;2023-01-05T09:19:13;10.20;99.90
16076;DHT22;8142;48.242;11.644;2023-01-05T09:21:40;10.10;99.90
16076;DHT22;8142;48.242;11.644;2023-01-05T09:24:07;10.00;99.90
16076;DHT22;8142;48.242;11.644;2023-01-05T09:26:37;10.00;99.90
16076;DHT22;8142;48.242;11.644;2023-01-05T09:29:04;10.00;99.90
16076;DHT22;8142;48.242;11.644;2023-01-05T09:31:31;9.90;99.90
16076;DHT22;8142;48.242;11.644;2023-01-05T09:33:59;9.90;99.90
16076;DHT22;8142;48.242;11.644;2023-01-05T09:36:29;9.90;99.90
16076;DHT22;8142;48.242;11.644;2023-01-05T09:38:57;9.90;99.90
16076;DHT22;8142;48.242;11.644;2023-01-05T09:41:33;9.80;99.90
16076;DHT22;8142;48.242;11.644;2023-01-05T09:44:34;9.80;99.90
16076;DHT22;8142;48.242;11.644;2023-01-05T09:47:32;9.80;99.90
16076;DHT22;8142;48.242;11.644;2023-01-05T09:50:00;9.70;99.90
16076;DHT22;8142;48.242;11.644;2023-01-05T09:52:29;9.70;99.90
16076;DHT22;8142;48.242;11.644;2023-01-05T09:54:56;9.70;99.90
16076;DHT22;8142;48.242;11.644;2023-01-05T09:57:27;9.70;99.90
16076;DHT22;8142;48.242;11.644;2023-01-05T09:59:58;9.70;99.90
16076;DHT22;8142;48.242;11.644;2023-01-05T10:02:45;9.60;99.90
16076;DHT22;8142;48.242;11.644;2023-01-05T10:05:13;9.60;99.90
16076;DHT22;8142;48.242;11.644;2023-01-05T10:10:23;9.50;99.90
16076;DHT22;8142;48.242;11.644;2023-01-05T10:12:51;9.50;99.90
16076;DHT22;8142;48.242;11.644;2023-01-05T10:15:42;9.50;99.90
16076;DHT22;8142;48.242;11.644;2023-01-05T10:18:13;9.50;99.90
16076;DHT22;8142;48.242;11.644;2023-01-05T10:23:56;9.40;99.90
16076;DHT22;8142;48.242;11.644;2023-01-05T10:26:56;9.40;99.90
16076;DHT22;8142;48.242;11.644;2023-01-05T10:29:47;9.40;99.90
16076;DHT22;8142;48.242;11.644;2023-01-05T10:32:25;9.40;99.90
16076;DHT22;8142;48.242;11.644;2023-01-05T10:40:37;9.30;99.90
16076;DHT22;8142;48.242;11.644;2023-01-05T10:46:19;9.30;99.90
16076;DHT22;8142;48.242;11.644;2023-01-05T10:48:46;9.30;99.90
16076;DHT22;8142;48.242;11.644;2023-01-05T10:51:13;9.30;99.90
16076;DHT22;8142;48.242;11.644;2023-01-05T10:53:41;9.40;99.90
16076;DHT22;8142;48.242;11.644;2023-01-05T10:56:21;9.40;99.90
16076;DHT22;8142;48.242;11.644;2023-01-05T10:59:11;9.40;99.90
16076;DHT22;8142;48.242;11.644;2023-01-05T11:01:44;9.40;99.90
16076;DHT22;8142;48.242;11.644;2023-01-05T11:04:23;9.40;99.90
16076;DHT22;8142;48.242;11.644;2023-01-05T11:06:49;9.50;99.90
16076;DHT22;8142;48.242;11.644;2023-01-05T11:09:17;9.50;99.90
16076;DHT22;8142;48.242;11.644;2023-01-05T11:11:55;9.50;99.90
16076;DHT22;8142;48.242;11.644;2023-01-05T11:14:22;9.50;99.90
16076;DHT22;8142;48.242;11.644;2023-01-05T11:16:50;9.50;99.90
16076;DHT22;8142;48.242;11.644;2023-01-05T11:19:21;9.50;99.90
16076;DHT22;8142;48.242;11.644;2023-01-05T11:21:50;9.50;99.90
16076;DHT22;8142;48.242;11.644;2023-01-05T11:26:54;9.60;99.90
16076;DHT22;8142;48.242;11.644;2023-01-05T11:29:21;9.60;99.90
16076;DHT22;8142;48.242;11.644;2023-01-05T11:32:19;9.70;99.90
16076;DHT22;8142;48.242;11.644;2023-01-05T11:34:47;9.70;99.90
16076;DHT22;8142;48.242;11.644;2023-01-05T11:45:02;9.80;99.90
16076;DHT22;8142;48.242;11.644;2023-01-05T11:47:47;9.80;99.90
16076;DHT22;8142;48.242;11.644;2023-01-05T11:50:21;9.90;99.90
16076;DHT22;8142;48.242;11.644;2023-01-05T11:52:52;9.90;99.90
16076;DHT22;8142;48.242;11.644;2023-01-05T11:57:47;9.90;99.90
16076;DHT22;8142;48.242;11.644;2023-01-05T12:00:25;10.00;99.90
16076;DHT22;8142;48.242;11.644;2023-01-05T12:03:12;10.00;99.90
16076;DHT22;8142;48.242;11.644;2023-01-05T12:05:49;10.00;99.90
16076;DHT22;8142;48.242;11.644;2023-01-05T12:08:29;10.10;99.90
16076;DHT22;8142;48.242;11.644;2023-01-05T12:11:20;10.00;99.90
16076;DHT22;8142;48.242;11.644;2023-01-05T12:14:09;10.10;99.90
16076;DHT22;8142;48.242;11.644;2023-01-05T12:16:53;10.10;99.90
16076;DHT22;8142;48.242;11.644;2023-01-05T12:22:26;10.10;99.90
16076;DHT22;8142;48.242;11.644;2023-01-05T12:30:56;10.10;99.90
16076;DHT22;8142;48.242;11.644;2023-01-05T12:39:06;10.20;99.90
16076;DHT22;8142;48.242;11.644;2023-01-05T12:44:53;10.20;99.90
16076;DHT22;8142;48.242;11.644;2023-01-05T12:47:39;10.20;99.90
16076;DHT22;8142;48.242;11.644;2023-01-05T12:52:57;10.30;99.90
16076;DHT22;8142;48.242;11.644;2023-01-05T12:55:34;10.20;99.90
16076;DHT22;8142;48.242;11.644;2023-01-05T12:58:19;10.20;99.90
16076;DHT22;8142;48.242;11.644;2023-01-05T13:00:48;10.10;99.90
16076;DHT22;8142;48.242;11.644;2023-01-05T13:03:31;10.20;99.90
16076;DHT22;8142;48.242;11.644;2023-01-05T13:06:05;10.10;99.90
16076;DHT22;8142;48.242;11.644;2023-01-05T13:13:58;10.10;99.90
16076;DHT22;8142;48.242;11.644;2023-01-05T13:16:36;10.10;99.90
16076;DHT22;8142;48.242;11.644;2023-01-05T13:19:19;10.10;99.90
16076;DHT22;8142;48.242;11.644;2023-01-05T13:21:49;10.10;99.90
16076;DHT22;8142;48.242;11.644;2023-01-05T13:26:53;10.10;99.90
16076;DHT22;8142;48.242;11.644;2023-01-05T13:29:25;10.10;99.90
16076;DHT22;8142;48.242;11.644;2023-01-05T13:32:19;10.10;99.90
16076;DHT22;8142;48.242;11.644;2023-01-05T13:40:37;9.90;99.90
16076;DHT22;8142;48.242;11.644;2023-01-05T13:51:57;9.70;99.90
16076;DHT22;8142;48.242;11.644;2023-01-05T13:56:54;9.60;99.90
16076;DHT22;8142;48.242;11.644;2023-01-05T13:59:29;9.60;99.90
16076;DHT22;8142;48.242;11.644;2023-01-05T14:01:57;9.60;99.90
16076;DHT22;8142;48.242;11.644;2023-01-05T14:04:27;9.60;99.90
16076;DHT22;8142;48.242;11.644;2023-01-05T14:06:58;9.60;99.90
16076;DHT22;8142;48.242;11.644;2023-01-05T14:09:42;9.50;99.90
16076;DHT22;8142;48.242;11.644;2023-01-05T14:14:58;9.50;99.90
16076;DHT22;8142;48.242;11.644;2023-01-05T14:20:47;9.50;99.90
16076;DHT22;8142;48.242;11.644;2023-01-05T14:33:56;9.40;99.90
16076;DHT22;8142;48.242;11.644;2023-01-05T14:36:35;9.30;99.90
16076;DHT22;8142;48.242;11.644;2023-01-05T14:39:20;9.40;99.90
16076;DHT22;8142;48.242;11.644;2023-01-05T14:44:45;9.30;99.90
16076;DHT22;8142;48.242;11.644;2023-01-05T14:47:17;9.30;99.90
16076;DHT22;8142;48.242;11.644;2023-01-05T14:49:56;9.30;99.90
16076;DHT22;8142;48.242;11.644;2023-01-05T14:52:55;9.30;99.90
16076;DHT22;8142;48.242;11.644;2023-01-05T14:57:51;9.20;99.90
16076;DHT22;8142;48.242;11.644;2023-01-05T15:00:44;9.20;99.90
16076;DHT22;8142;48.242;11.644;2023-01-05T15:05:57;9.20;99.90
16076;DHT22;8142;48.242;11.644;2023-01-05T15:14:22;9.20;99.90
16076;DHT22;8142;48.242;11.644;2023-01-05T15:31:44;9.10;99.90
16076;DHT22;8142;48.242;11.644;2023-01-05T15:34:42;9.00;99.90
16076;DHT22;8142;48.242;11.644;2023-01-05T15:37:22;9.00;99.90
16076;DHT22;8142;48.242;11.644;2023-01-05T15:39:55;9.00;99.90
16076;DHT22;8142;48.242;11.644;2023-01-05T15:42:42;9.00;99.90
16076;DHT22;8142;48.242;11.644;2023-01-05T15:47:49;9.00;99.90
16076;DHT22;8142;48.242;11.644;2023-01-05T15:50:22;9.00;99.90
16076;DHT22;8142;48.242;11.644;2023-01-05T15:52:54;9.00;99.90
16076;DHT22;8142;48.242;11.644;2023-01-05T15:55:21;9.00;99.90
16076;DHT22;8142;48.242;11.644;2023-01-05T15:58:14;9.00;99.90
16076;DHT22;8142;48.242;11.644;2023-01-05T16:00:42;9.00;99.90
16076;DHT22;8142;48.242;11.644;2023-01-05T16:03:29;9.00;99.90
16076;DHT22;8142;48.242;11.644;2023-01-05T16:06:01;9.00;99.90
16076;DHT22;8142;48.242;11.644;2023-01-05T16:08:30;9.00;99.90
16076;DHT22;8142;48.242;11.644;2023-01-05T16:11:07;9.00;99.90
16076;DHT22;8142;48.242;11.644;2023-01-05T16:22:17;9.00;99.90
16076;DHT22;8142;48.242;11.644;2023-01-05T16:27:22;9.00;99.90
16076;DHT22;8142;48.242;11.644;2023-01-05T16:29:48;8.90;99.90
16076;DHT22;8142;48.242;11.644;2023-01-05T16:32:34;8.90;99.90
16076;DHT22;8142;48.242;11.644;2023-01-05T16:35:21;8.90;99.90
16076;DHT22;8142;48.242;11.644;2023-01-05T16:43:33;8.80;99.90
16076;DHT22;8142;48.242;11.644;2023-01-05T16:46:41;8.80;99.90
16076;DHT22;8142;48.242;11.644;2023-01-05T16:52:02;8.80;99.90
16076;DHT22;8142;48.242;11.644;2023-01-05T16:54:31;8.80;99.90
16076;DHT22;8142;48.242;11.644;2023-01-05T16:59:54;8.70;99.90
16076;DHT22;8142;48.242;11.644;2023-01-05T17:02:42;8.70;99.90
16076;DHT22;8142;48.242;11.644;2023-01-05T17:05:09;8.70;99.90
16076;DHT22;8142;48.242;11.644;2023-01-05T17:07:38;8.70;99.90
16076;DHT22;8142;48.242;11.644;2023-01-05T17:10:07;8.70;99.90
16076;DHT22;8142;48.242;11.644;2023-01-05T17:12:38;8.60;99.90
16076;DHT22;8142;48.242;11.644;2023-01-05T17:15:05;8.60;99.90
16076;DHT22;8142;48.242;11.644;2023-01-05T17:17:31;8.60;99.90
16076;DHT22;8142;48.242;11.644;2023-01-05T17:19:58;8.60;99.90
16076;DHT22;8142;48.242;11.644;2023-01-05T17:22:24;8.60;99.90
16076;DHT22;8142;48.242;11.644;2023-01-05T17:24:50;8.60;99.90
16076;DHT22;8142;48.242;11.644;2023-01-05T17:27:17;8.60;99.90
16076;DHT22;8142;48.242;11.644;2023-01-05T17:29:46;8.60;99.90
16076;DHT22;8142;48.242;11.644;2023-01-05T17:32:12;8.60;99.90
16076;DHT22;8142;48.242;11.644;2023-01-05T17:34:38;8.60;99.90
16076;DHT22;8142;48.242;11.644;2023-01-05T17:37:13;8.60;99.90
16076;DHT22;8142;48.242;11.644;2023-01-05T17:39:39;8.60;99.90
16076;DHT22;8142;48.242;11.644;2023-01-05T17:42:07;8.60;99.90
16076;DHT22;8142;48.242;11.644;2023-01-05T17:44:51;8.60;99.90
16076;DHT22;8142;48.242;11.644;2023-01-05T17:47:17;8.60;99.90
16076;DHT22;8142;48.242;11.644;2023-01-05T17:49:44;8.60;99.90
16076;DHT22;8142;48.242;11.644;2023-01-05T17:52:10;8.60;99.90
16076;DHT22;8142;48.242;11.644;2023-01-05T17:54:36;8.60;99.90
16076;DHT22;8142;48.242;11.644;2023-01-05T17:57:02;8.60;99.90
16076;DHT22;8142;48.242;11.644;2023-01-05T17:59:38;8.60;99.90
16076;DHT22;8142;48.242;11.644;2023-01-05T18:02:18;8.60;99.90
16076;DHT22;8142;48.242;11.644;2023-01-05T18:04:44;8.70;99.90
16076;DHT22;8142;48.242;11.644;2023-01-05T18:07:10;8.70;99.90
16076;DHT22;8142;48.242;11.644;2023-01-05T18:09:36;8.70;99.90
16076;DHT22;8142;48.242;11.644;2023-01-05T18:12:03;8.70;99.90
16076;DHT22;8142;48.242;11.644;2023-01-05T18:14:29;8.80;99.90
16076;DHT22;8142;48.242;11.644;2023-01-05T18:16:55;8.80;99.90
16076;DHT22;8142;48.242;11.644;2023-01-05T18:19:22;8.80;99.90
16076;DHT22;8142;48.242;11.644;2023-01-05T18:21:48;8.90;99.90
16076;DHT22;8142;48.242;11.644;2023-01-05T18:24:14;8.90;99.90
16076;DHT22;8142;48.242;11.644;2023-01-05T18:26:40;8.90;99.90
16076;DHT22;8142;48.242;11.644;2023-01-05T18:29:06;8.90;99.90
16076;DHT22;8142;48.242;11.644;2023-01-05T18:31:36;8.90;99.90
16076;DHT22;8142;48.242;11.644;2023-01-05T18:34:02;9.00;99.90
16076;DHT22;8142;48.242;11.644;2023-01-05T18:36:31;9.00;99.90
16076;DHT22;8142;48.242;11.644;2023-01-05T18:38:57;9.00;99.90
16076;DHT22;8142;48.242;11.644;2023-01-05T18:41:25;9.00;99.90
16076;DHT22;8142;48.242;11.644;2023-01-05T18:43:51;9.00;99.90
16076;DHT22;8142;48.242;11.644;2023-01-05T18:46:17;9.10;99.90
16076;DHT22;8142;48.242;11.644;2023-01-05T18:48:47;9.10;99.90
16076;DHT22;8142;48.242;11.644;2023-01-05T18:51:19;9.10;99.90
16076;DHT22;8142;48.242;11.644;2023-01-05T18:53:45;9.10;99.90
16076;DHT22;8142;48.242;11.644;2023-01-05T18:56:12;9.10;99.90